sensor_id;sensor_type;location;lat;lon;timestamp;P1;durP1;ratioP1;P2;durP2;ratioP2
40599;SDS011;26309;50.924;4.754;2023-04-03T00:01:14;21.17;;;14.37;;
40599;SDS011;26309;50.924;4.754;2023-04-03T00:03:41;20.23;;;15.37;;
40599;SDS011;26309;50.924;4.754;2023-04-03T00:06:08;17.13;;;13.90;;
40599;SDS011;26309;50.924;4.754;2023-04-03T00:08:36;21.03;;;13.83;;
40599;SDS011;26309;50.924;4.754;2023-04-03T00:11:03;19.03;;;13.00;;
40599;SDS011;26309;50.924;4.754;2023-04-03T00:13:29;18.50;;;12.93;;
40599;SDS011;26309;50.924;4.754;2023-04-03T00:15:56;15.80;;;12.80;;
40599;SDS011;26309;50.924;4.754;2023-04-03T00:18:22;13.87;;;11.23;;
40599;SDS011;26309;50.924;4.754;2023-04-03T00:20:48;19.57;;;12.27;;
40599;SDS011;26309;50.924;4.754;2023-04-03T00:23:15;14.77;;;11.80;;
40599;SDS011;26309;50.924;4.754;2023-04-03T00:25:41;18.67;;;12.93;;
40599;SDS011;26309;50.924;4.754;2023-04-03T00:28:07;17.03;;;12.60;;
40599;SDS011;26309;50.924;4.754;2023-04-03T00:30:34;17.20;;;13.17;;
40599;SDS011;26309;50.924;4.754;2023-04-03T00:33:00;17.33;;;13.13;;
40599;SDS011;26309;50.924;4.754;2023-04-03T00:35:27;17.43;;;13.20;;
40599;SDS011;26309;50.924;4.754;2023-04-03T00:37:53;15.53;;;12.70;;
40599;SDS011;26309;50.924;4.754;2023-04-03T00:40:21;19.93;;;12.67;;
40599;SDS011;26309;50.924;4.754;2023-04-03T00:42:49;19.33;;;12.93;;
40599;SDS011;26309;50.924;4.754;2023-04-03T00:45:25;16.47;;;11.60;;
40599;SDS011;26309;50.924;4.754;2023-04-03T00:48:01;23.50;;;12.27;;
40599;SDS011;26309;50.924;4.754;2023-04-03T00:50:31;20.10;;;12.30;;
40599;SDS011;26309;50.924;4.754;2023-04-03T00:53:02;16.23;;;12.30;;
40599;SDS011;26309;50.924;4.754;2023-04-03T00:55:30;15.67;;;12.30;;
40599;SDS011;26309;50.924;4.754;2023-04-03T00:57:56;18.40;;;11.97;;
40599;SDS011;26309;50.924;4.754;2023-04-03T01:00:24;13.33;;;11.27;;
40599;SDS011;26309;50.924;4.754;2023-04-03T01:02:50;15.30;;;11.50;;
40599;SDS011;26309;50.924;4.754;2023-04-03T01:05:17;17.73;;;11.83;;
40599;SDS011;26309;50.924;4.754;2023-04-03T01:07:43;15.87;;;10.97;;
40599;SDS011;26309;50.924;4.754;2023-04-03T01:10:12;13.07;;;9.53;;
40599;SDS011;26309;50.924;4.754;2023-04-03T01:12:41;14.97;;;10.53;;
40599;SDS011;26309;50.924;4.754;2023-04-03T01:15:18;15.03;;;10.47;;
40599;SDS011;26309;50.924;4.754;2023-04-03T01:17:53;15.60;;;10.47;;
40599;SDS011;26309;50.924;4.754;2023-04-03T01:23:19;14.87;;;10.03;;
40599;SDS011;26309;50.924;4.754;2023-04-03T01:26:06;13.50;;;10.43;;
40599;SDS011;26309;50.924;4.754;2023-04-03T01:28:35;14.80;;;10.93;;
40599;SDS011;26309;50.924;4.754;2023-04-03T01:33:59;14.57;;;10.97;;
40599;SDS011;26309;50.924;4.754;2023-04-03T01:36:27;14.40;;;11.30;;
40599;SDS011;26309;50.924;4.754;2023-04-03T01:38:55;12.67;;;10.40;;
40599;SDS011;26309;50.924;4.754;2023-04-03T01:41:22;16.63;;;11.50;;
40599;SDS011;26309;50.924;4.754;2023-04-03T01:43:48;16.13;;;11.17;;
40599;SDS011;26309;50.924;4.754;2023-04-03T01:46:16;17.77;;;12.83;;
40599;SDS011;26309;50.924;4.754;2023-04-03T01:48:43;22.73;;;12.97;;
40599;SDS011;26309;50.924;4.754;2023-04-03T01:51:09;17.80;;;12.70;;
40599;SDS011;26309;50.924;4.754;2023-04-03T01:53:35;19.07;;;13.03;;
40599;SDS011;26309;50.924;4.754;2023-04-03T01:56:01;20.07;;;13.23;;
40599;SDS011;26309;50.924;4.754;2023-04-03T01:58:27;19.57;;;13.17;;
40599;SDS011;26309;50.924;4.754;2023-04-03T02:00:53;18.33;;;13.13;;
40599;SDS011;26309;50.924;4.754;2023-04-03T02:03:19;22.87;;;13.70;;
40599;SDS011;26309;50.924;4.754;2023-04-03T02:05:45;23.63;;;15.03;;
40599;SDS011;26309;50.924;4.754;2023-04-03T02:08:11;21.87;;;14.17;;
40599;SDS011;26309;50.924;4.754;2023-04-03T02:10:39;21.87;;;14.47;;
40599;SDS011;26309;50.924;4.754;2023-04-03T02:13:05;20.77;;;14.50;;
40599;SDS011;26309;50.924;4.754;2023-04-03T02:15:30;20.27;;;14.60;;
40599;SDS011;26309;50.924;4.754;2023-04-03T02:17:56;22.57;;;13.40;;
40599;SDS011;26309;50.924;4.754;2023-04-03T02:20:22;19.33;;;13.33;;
40599;SDS011;26309;50.924;4.754;2023-04-03T02:22:48;22.50;;;14.47;;
40599;SDS011;26309;50.924;4.754;2023-04-03T02:25:14;20.60;;;13.80;;
40599;SDS011;26309;50.924;4.754;2023-04-03T02:27:40;17.97;;;13.90;;
40599;SDS011;26309;50.924;4.754;2023-04-03T02:30:06;20.30;;;14.17;;
40599;SDS011;26309;50.924;4.754;2023-04-03T02:32:35;21.67;;;13.90;;
40599;SDS011;26309;50.924;4.754;2023-04-03T02:35:01;21.87;;;14.20;;
40599;SDS011;26309;50.924;4.754;2023-04-03T02:37:27;23.77;;;14.30;;
40599;SDS011;26309;50.924;4.754;2023-04-03T02:39:53;23.00;;;15.30;;
40599;SDS011;26309;50.924;4.754;2023-04-03T02:42:19;21.33;;;14.83;;
40599;SDS011;26309;50.924;4.754;2023-04-03T02:44:45;22.93;;;14.60;;
40599;SDS011;26309;50.924;4.754;2023-04-03T02:47:11;18.70;;;14.00;;
40599;SDS011;26309;50.924;4.754;2023-04-03T02:49:37;22.60;;;13.63;;
40599;SDS011;26309;50.924;4.754;2023-04-03T02:52:03;20.60;;;13.30;;
40599;SDS011;26309;50.924;4.754;2023-04-03T02:54:29;20.23;;;13.63;;
40599;SDS011;26309;50.924;4.754;2023-04-03T02:56:56;21.67;;;14.33;;
40599;SDS011;26309;50.924;4.754;2023-04-03T02:59:22;21.23;;;13.87;;
40599;SDS011;26309;50.924;4.754;2023-04-03T03:01:48;20.90;;;14.13;;
40599;SDS011;26309;50.924;4.754;2023-04-03T03:04:17;18.20;;;13.77;;
40599;SDS011;26309;50.924;4.754;2023-04-03T03:06:43;20.90;;;14.40;;
40599;SDS011;26309;50.924;4.754;2023-04-03T03:09:09;19.30;;;14.67;;
40599;SDS011;26309;50.924;4.754;2023-04-03T03:11:35;18.67;;;14.13;;
40599;SDS011;26309;50.924;4.754;2023-04-03T03:14:01;22.27;;;15.07;;
40599;SDS011;26309;50.924;4.754;2023-04-03T03:16:27;19.13;;;14.40;;
40599;SDS011;26309;50.924;4.754;2023-04-03T03:18:52;19.50;;;14.40;;
40599;SDS011;26309;50.924;4.754;2023-04-03T03:21:18;19.37;;;13.17;;
40599;SDS011;26309;50.924;4.754;2023-04-03T03:23:44;19.17;;;13.47;;
40599;SDS011;26309;50.924;4.754;2023-04-03T03:26:10;17.80;;;13.03;;
40599;SDS011;26309;50.924;4.754;2023-04-03T03:28:37;15.43;;;12.70;;
40599;SDS011;26309;50.924;4.754;2023-04-03T03:31:04;20.33;;;11.50;;
40599;SDS011;26309;50.924;4.754;2023-04-03T03:33:30;17.17;;;12.83;;
40599;SDS011;26309;50.924;4.754;2023-04-03T03:35:56;20.33;;;12.03;;
40599;SDS011;26309;50.924;4.754;2023-04-03T03:38:23;20.53;;;14.17;;
40599;SDS011;26309;50.924;4.754;2023-04-03T03:40:50;21.97;;;12.90;;
40599;SDS011;26309;50.924;4.754;2023-04-03T03:43:17;22.67;;;12.97;;
40599;SDS011;26309;50.924;4.754;2023-04-03T03:45:44;15.97;;;12.13;;
40599;SDS011;26309;50.924;4.754;2023-04-03T03:48:11;20.53;;;13.10;;
40599;SDS011;26309;50.924;4.754;2023-04-03T03:50:40;15.40;;;12.40;;
40599;SDS011;26309;50.924;4.754;2023-04-03T03:53:06;17.30;;;13.07;;
40599;SDS011;26309;50.924;4.754;2023-04-03T03:55:32;15.00;;;12.17;;
40599;SDS011;26309;50.924;4.754;2023-04-03T03:57:57;19.97;;;12.67;;
40599;SDS011;26309;50.924;4.754;2023-04-03T04:00:25;20.60;;;12.93;;
40599;SDS011;26309;50.924;4.754;2023-04-03T04:02:51;19.47;;;13.13;;
40599;SDS011;26309;50.924;4.754;2023-04-03T04:05:19;21.43;;;13.33;;
40599;SDS011;26309;50.924;4.754;2023-04-03T04:07:45;17.73;;;12.63;;
40599;SDS011;26309;50.924;4.754;2023-04-03T04:10:11;16.47;;;12.27;;
40599;SDS011;26309;50.924;4.754;2023-04-03T04:12:39;17.17;;;12.90;;
40599;SDS011;26309;50.924;4.754;2023-04-03T04:15:05;18.07;;;13.10;;
40599;SDS011;26309;50.924;4.754;2023-04-03T04:17:31;16.43;;;12.23;;
40599;SDS011;26309;50.924;4.754;2023-04-03T04:19:57;18.07;;;12.67;;
40599;SDS011;26309;50.924;4.754;2023-04-03T04:22:22;16.30;;;13.13;;
40599;SDS011;26309;50.924;4.754;2023-04-03T04:24:48;19.70;;;12.40;;
40599;SDS011;26309;50.924;4.754;2023-04-03T04:27:14;20.53;;;13.40;;
40599;SDS011;26309;50.924;4.754;2023-04-03T04:29:41;18.80;;;12.50;;
40599;SDS011;26309;50.924;4.754;2023-04-03T04:32:07;21.60;;;13.17;;
40599;SDS011;26309;50.924;4.754;2023-04-03T04:34:33;21.07;;;12.63;;
40599;SDS011;26309;50.924;4.754;2023-04-03T04:37:00;20.37;;;13.37;;
40599;SDS011;26309;50.924;4.754;2023-04-03T04:39:25;16.80;;;13.40;;
40599;SDS011;26309;50.924;4.754;2023-04-03T04:41:51;16.73;;;12.43;;
40599;SDS011;26309;50.924;4.754;2023-04-03T04:44:17;19.93;;;13.07;;
40599;SDS011;26309;50.924;4.754;2023-04-03T04:46:43;20.37;;;13.60;;
40599;SDS011;26309;50.924;4.754;2023-04-03T04:49:09;20.83;;;12.93;;
40599;SDS011;26309;50.924;4.754;2023-04-03T04:51:35;17.70;;;13.40;;
40599;SDS011;26309;50.924;4.754;2023-04-03T04:54:01;20.47;;;12.73;;
40599;SDS011;26309;50.924;4.754;2023-04-03T04:56:26;20.67;;;15.10;;
40599;SDS011;26309;50.924;4.754;2023-04-03T04:58:52;21.90;;;15.70;;
40599;SDS011;26309;50.924;4.754;2023-04-03T05:01:18;23.20;;;16.43;;
40599;SDS011;26309;50.924;4.754;2023-04-03T05:03:44;25.30;;;16.73;;
40599;SDS011;26309;50.924;4.754;2023-04-03T05:06:10;17.17;;;13.37;;
40599;SDS011;26309;50.924;4.754;2023-04-03T05:08:35;17.77;;;12.87;;
40599;SDS011;26309;50.924;4.754;2023-04-03T05:11:01;21.83;;;15.63;;
40599;SDS011;26309;50.924;4.754;2023-04-03T05:13:27;20.63;;;16.13;;
40599;SDS011;26309;50.924;4.754;2023-04-03T05:15:53;21.40;;;15.43;;
40599;SDS011;26309;50.924;4.754;2023-04-03T05:18:19;22.63;;;14.87;;
40599;SDS011;26309;50.924;4.754;2023-04-03T05:20:45;34.60;;;14.90;;
40599;SDS011;26309;50.924;4.754;2023-04-03T05:23:13;25.93;;;14.40;;
40599;SDS011;26309;50.924;4.754;2023-04-03T05:25:38;27.47;;;14.80;;
40599;SDS011;26309;50.924;4.754;2023-04-03T05:28:04;18.70;;;13.53;;
40599;SDS011;26309;50.924;4.754;2023-04-03T05:30:31;30.10;;;14.40;;
40599;SDS011;26309;50.924;4.754;2023-04-03T05:32:58;24.87;;;14.73;;
40599;SDS011;26309;50.924;4.754;2023-04-03T05:35:24;18.73;;;13.90;;
40599;SDS011;26309;50.924;4.754;2023-04-03T05:37:50;21.93;;;14.13;;
40599;SDS011;26309;50.924;4.754;2023-04-03T05:40:17;19.13;;;13.93;;
40599;SDS011;26309;50.924;4.754;2023-04-03T05:42:43;22.03;;;14.37;;
40599;SDS011;26309;50.924;4.754;2023-04-03T05:45:09;18.30;;;13.90;;
40599;SDS011;26309;50.924;4.754;2023-04-03T05:47:36;21.17;;;13.73;;
40599;SDS011;26309;50.924;4.754;2023-04-03T05:50:02;22.43;;;14.23;;
40599;SDS011;26309;50.924;4.754;2023-04-03T05:52:30;22.97;;;15.73;;
40599;SDS011;26309;50.924;4.754;2023-04-03T05:55:01;23.10;;;15.90;;
40599;SDS011;26309;50.924;4.754;2023-04-03T05:57:27;22.70;;;14.53;;
40599;SDS011;26309;50.924;4.754;2023-04-03T05:59:53;27.63;;;15.40;;
40599;SDS011;26309;50.924;4.754;2023-04-03T06:02:20;25.37;;;15.60;;
40599;SDS011;26309;50.924;4.754;2023-04-03T06:04:48;25.60;;;16.03;;
40599;SDS011;26309;50.924;4.754;2023-04-03T06:07:15;20.27;;;15.43;;
40599;SDS011;26309;50.924;4.754;2023-04-03T06:09:43;19.00;;;14.80;;
40599;SDS011;26309;50.924;4.754;2023-04-03T06:12:09;24.63;;;16.57;;
40599;SDS011;26309;50.924;4.754;2023-04-03T06:14:35;29.70;;;16.63;;
40599;SDS011;26309;50.924;4.754;2023-04-03T06:17:01;31.00;;;19.10;;
40599;SDS011;26309;50.924;4.754;2023-04-03T06:19:27;23.53;;;17.03;;
40599;SDS011;26309;50.924;4.754;2023-04-03T06:21:53;28.23;;;18.70;;
40599;SDS011;26309;50.924;4.754;2023-04-03T06:24:19;26.57;;;17.63;;
40599;SDS011;26309;50.924;4.754;2023-04-03T06:26:47;28.77;;;17.80;;
40599;SDS011;26309;50.924;4.754;2023-04-03T06:29:15;27.97;;;17.60;;
40599;SDS011;26309;50.924;4.754;2023-04-03T06:31:41;26.37;;;18.13;;
40599;SDS011;26309;50.924;4.754;2023-04-03T06:34:07;29.23;;;19.23;;
40599;SDS011;26309;50.924;4.754;2023-04-03T06:36:33;24.97;;;18.50;;
40599;SDS011;26309;50.924;4.754;2023-04-03T06:38:59;26.30;;;19.03;;
40599;SDS011;26309;50.924;4.754;2023-04-03T06:41:26;24.90;;;19.93;;
40599;SDS011;26309;50.924;4.754;2023-04-03T06:43:52;27.03;;;19.77;;
40599;SDS011;26309;50.924;4.754;2023-04-03T06:46:20;27.50;;;19.40;;
40599;SDS011;26309;50.924;4.754;2023-04-03T06:48:47;23.80;;;17.27;;
40599;SDS011;26309;50.924;4.754;2023-04-03T06:51:17;19.10;;;15.57;;
40599;SDS011;26309;50.924;4.754;2023-04-03T06:53:47;24.30;;;15.80;;
40599;SDS011;26309;50.924;4.754;2023-04-03T06:56:14;23.17;;;14.87;;
40599;SDS011;26309;50.924;4.754;2023-04-03T06:58:42;17.87;;;14.27;;
40599;SDS011;26309;50.924;4.754;2023-04-03T07:01:09;21.50;;;13.93;;
40599;SDS011;26309;50.924;4.754;2023-04-03T07:03:36;18.60;;;13.47;;
40599;SDS011;26309;50.924;4.754;2023-04-03T07:06:02;18.47;;;13.00;;
40599;SDS011;26309;50.924;4.754;2023-04-03T07:08:29;16.23;;;12.43;;
40599;SDS011;26309;50.924;4.754;2023-04-03T07:10:55;16.60;;;11.53;;
40599;SDS011;26309;50.924;4.754;2023-04-03T07:13:21;19.93;;;11.90;;
40599;SDS011;26309;50.924;4.754;2023-04-03T07:15:47;17.63;;;12.23;;
40599;SDS011;26309;50.924;4.754;2023-04-03T07:18:14;15.00;;;12.20;;
40599;SDS011;26309;50.924;4.754;2023-04-03T07:20:39;15.73;;;11.80;;
40599;SDS011;26309;50.924;4.754;2023-04-03T07:23:05;12.00;;;10.53;;
40599;SDS011;26309;50.924;4.754;2023-04-03T07:25:31;16.83;;;11.60;;
40599;SDS011;26309;50.924;4.754;2023-04-03T07:27:59;16.77;;;10.03;;
40599;SDS011;26309;50.924;4.754;2023-04-03T07:30:25;17.77;;;10.90;;
40599;SDS011;26309;50.924;4.754;2023-04-03T07:32:51;18.07;;;10.57;;
40599;SDS011;26309;50.924;4.754;2023-04-03T07:35:17;14.63;;;10.67;;
40599;SDS011;26309;50.924;4.754;2023-04-03T07:37:44;14.37;;;9.17;;
40599;SDS011;26309;50.924;4.754;2023-04-03T07:40:10;10.57;;;8.80;;
40599;SDS011;26309;50.924;4.754;2023-04-03T07:42:36;15.03;;;9.33;;
40599;SDS011;26309;50.924;4.754;2023-04-03T07:45:03;13.60;;;9.10;;
40599;SDS011;26309;50.924;4.754;2023-04-03T07:47:29;13.17;;;8.77;;
40599;SDS011;26309;50.924;4.754;2023-04-03T07:49:56;13.07;;;8.67;;
40599;SDS011;26309;50.924;4.754;2023-04-03T07:52:23;11.30;;;7.50;;
40599;SDS011;26309;50.924;4.754;2023-04-03T07:54:49;11.10;;;6.03;;
40599;SDS011;26309;50.924;4.754;2023-04-03T07:57:15;15.27;;;6.90;;
40599;SDS011;26309;50.924;4.754;2023-04-03T07:59:41;10.13;;;6.53;;
40599;SDS011;26309;50.924;4.754;2023-04-03T08:02:09;11.33;;;6.63;;
40599;SDS011;26309;50.924;4.754;2023-04-03T08:04:35;8.93;;;6.67;;
40599;SDS011;26309;50.924;4.754;2023-04-03T08:07:01;13.90;;;6.87;;
40599;SDS011;26309;50.924;4.754;2023-04-03T08:09:27;10.90;;;6.57;;
40599;SDS011;26309;50.924;4.754;2023-04-03T08:11:53;7.07;;;6.10;;
40599;SDS011;26309;50.924;4.754;2023-04-03T08:14:19;10.17;;;6.50;;
40599;SDS011;26309;50.924;4.754;2023-04-03T08:16:46;14.57;;;6.13;;
40599;SDS011;26309;50.924;4.754;2023-04-03T08:19:13;8.83;;;6.03;;
40599;SDS011;26309;50.924;4.754;2023-04-03T08:21:42;7.90;;;5.43;;
40599;SDS011;26309;50.924;4.754;2023-04-03T08:24:08;11.70;;;5.73;;
40599;SDS011;26309;50.924;4.754;2023-04-03T08:26:35;8.20;;;6.00;;
40599;SDS011;26309;50.924;4.754;2023-04-03T08:29:01;9.67;;;5.40;;
40599;SDS011;26309;50.924;4.754;2023-04-03T08:31:27;12.30;;;5.80;;
40599;SDS011;26309;50.924;4.754;2023-04-03T08:33:53;9.23;;;5.30;;
40599;SDS011;26309;50.924;4.754;2023-04-03T08:36:20;9.73;;;5.17;;
40599;SDS011;26309;50.924;4.754;2023-04-03T08:38:49;11.67;;;4.73;;
40599;SDS011;26309;50.924;4.754;2023-04-03T08:41:27;7.60;;;4.57;;
40599;SDS011;26309;50.924;4.754;2023-04-03T08:44:04;11.33;;;5.40;;
40599;SDS011;26309;50.924;4.754;2023-04-03T08:46:52;9.83;;;4.20;;
40599;SDS011;26309;50.924;4.754;2023-04-03T08:49:42;8.47;;;4.37;;
40599;SDS011;26309;50.924;4.754;2023-04-03T08:52:18;8.23;;;3.90;;
40599;SDS011;26309;50.924;4.754;2023-04-03T08:57:15;9.17;;;4.37;;
40599;SDS011;26309;50.924;4.754;2023-04-03T08:59:42;7.60;;;3.70;;
40599;SDS011;26309;50.924;4.754;2023-04-03T09:04:57;9.17;;;3.80;;
40599;SDS011;26309;50.924;4.754;2023-04-03T09:07:34;7.07;;;3.20;;
40599;SDS011;26309;50.924;4.754;2023-04-03T09:10:05;5.47;;;3.40;;
40599;SDS011;26309;50.924;4.754;2023-04-03T09:12:37;5.00;;;3.30;;
40599;SDS011;26309;50.924;4.754;2023-04-03T09:15:23;6.00;;;3.30;;
40599;SDS011;26309;50.924;4.754;2023-04-03T09:20:54;7.30;;;3.10;;
40599;SDS011;26309;50.924;4.754;2023-04-03T09:23:39;3.33;;;3.03;;
40599;SDS011;26309;50.924;4.754;2023-04-03T09:26:17;7.53;;;3.80;;
40599;SDS011;26309;50.924;4.754;2023-04-03T09:28:45;6.77;;;3.07;;
40599;SDS011;26309;50.924;4.754;2023-04-03T09:31:21;6.13;;;3.50;;
40599;SDS011;26309;50.924;4.754;2023-04-03T09:34:03;7.53;;;3.03;;
40599;SDS011;26309;50.924;4.754;2023-04-03T09:36:43;5.83;;;4.13;;
40599;SDS011;26309;50.924;4.754;2023-04-03T09:39:15;7.70;;;3.73;;
40599;SDS011;26309;50.924;4.754;2023-04-03T09:42:25;5.33;;;3.70;;
40599;SDS011;26309;50.924;4.754;2023-04-03T09:44:58;6.07;;;3.40;;
40599;SDS011;26309;50.924;4.754;2023-04-03T09:47:36;6.17;;;3.23;;
40599;SDS011;26309;50.924;4.754;2023-04-03T09:50:15;5.77;;;3.60;;
40599;SDS011;26309;50.924;4.754;2023-04-03T09:52:49;5.40;;;3.40;;
40599;SDS011;26309;50.924;4.754;2023-04-03T09:55:20;5.20;;;3.30;;
40599;SDS011;26309;50.924;4.754;2023-04-03T09:57:58;4.57;;;2.80;;
40599;SDS011;26309;50.924;4.754;2023-04-03T10:00:36;8.77;;;3.67;;
40599;SDS011;26309;50.924;4.754;2023-04-03T10:03:04;7.03;;;3.10;;
40599;SDS011;26309;50.924;4.754;2023-04-03T10:10:40;6.27;;;2.37;;
40599;SDS011;26309;50.924;4.754;2023-04-03T10:13:11;5.57;;;2.80;;
40599;SDS011;26309;50.924;4.754;2023-04-03T10:21:02;7.30;;;2.40;;
40599;SDS011;26309;50.924;4.754;2023-04-03T10:32:02;4.70;;;2.57;;
40599;SDS011;26309;50.924;4.754;2023-04-03T10:34:48;2.83;;;2.30;;
40599;SDS011;26309;50.924;4.754;2023-04-03T10:37:27;5.17;;;2.10;;
40599;SDS011;26309;50.924;4.754;2023-04-03T10:46:06;3.30;;;2.30;;
40599;SDS011;26309;50.924;4.754;2023-04-03T10:49:01;4.83;;;2.40;;
40599;SDS011;26309;50.924;4.754;2023-04-03T10:54:34;4.53;;;2.60;;
40599;SDS011;26309;50.924;4.754;2023-04-03T10:57:05;5.07;;;2.40;;
40599;SDS011;26309;50.924;4.754;2023-04-03T10:59:44;4.60;;;2.60;;
40599;SDS011;26309;50.924;4.754;2023-04-03T11:04:41;5.27;;;2.13;;
40599;SDS011;26309;50.924;4.754;2023-04-03T11:07:10;2.97;;;2.30;;
40599;SDS011;26309;50.924;4.754;2023-04-03T11:09:42;3.17;;;2.30;;
40599;SDS011;26309;50.924;4.754;2023-04-03T11:14:47;9.03;;;2.23;;
40599;SDS011;26309;50.924;4.754;2023-04-03T11:22:25;4.47;;;2.40;;
40599;SDS011;26309;50.924;4.754;2023-04-03T11:35:48;5.77;;;1.90;;
40599;SDS011;26309;50.924;4.754;2023-04-03T11:38:19;3.97;;;1.87;;
40599;SDS011;26309;50.924;4.754;2023-04-03T11:40:59;3.33;;;2.00;;
40599;SDS011;26309;50.924;4.754;2023-04-03T11:43:30;5.10;;;2.17;;
40599;SDS011;26309;50.924;4.754;2023-04-03T11:46:07;4.63;;;2.00;;
40599;SDS011;26309;50.924;4.754;2023-04-03T11:51:01;3.47;;;2.13;;
40599;SDS011;26309;50.924;4.754;2023-04-03T11:53:47;2.43;;;1.83;;
40599;SDS011;26309;50.924;4.754;2023-04-03T12:01:43;2.83;;;1.60;;
40599;SDS011;26309;50.924;4.754;2023-04-03T12:04:13;6.70;;;2.03;;
40599;SDS011;26309;50.924;4.754;2023-04-03T12:09:24;3.27;;;1.80;;
40599;SDS011;26309;50.924;4.754;2023-04-03T12:11:59;3.77;;;1.90;;
40599;SDS011;26309;50.924;4.754;2023-04-03T12:14:27;5.67;;;1.70;;
40599;SDS011;26309;50.924;4.754;2023-04-03T12:16:54;2.87;;;1.60;;
40599;SDS011;26309;50.924;4.754;2023-04-03T12:19:34;2.60;;;1.70;;
40599;SDS011;26309;50.924;4.754;2023-04-03T12:22:06;3.63;;;1.67;;
40599;SDS011;26309;50.924;4.754;2023-04-03T12:24:35;3.17;;;1.67;;
40599;SDS011;26309;50.924;4.754;2023-04-03T12:35:30;4.50;;;1.90;;
40599;SDS011;26309;50.924;4.754;2023-04-03T12:43:47;4.87;;;1.90;;
40599;SDS011;26309;50.924;4.754;2023-04-03T12:46:37;3.40;;;1.80;;
40599;SDS011;26309;50.924;4.754;2023-04-03T12:51:54;4.37;;;2.13;;
40599;SDS011;26309;50.924;4.754;2023-04-03T12:54:35;4.60;;;2.20;;
40599;SDS011;26309;50.924;4.754;2023-04-03T12:59:51;4.97;;;2.30;;
40599;SDS011;26309;50.924;4.754;2023-04-03T13:04:46;4.23;;;2.10;;
40599;SDS011;26309;50.924;4.754;2023-04-03T13:07:22;3.03;;;1.87;;
40599;SDS011;26309;50.924;4.754;2023-04-03T13:12:33;3.90;;;2.30;;
40599;SDS011;26309;50.924;4.754;2023-04-03T13:15:02;5.07;;;1.95;;
40599;SDS011;26309;50.924;4.754;2023-04-03T13:17:38;5.37;;;1.57;;
40599;SDS011;26309;50.924;4.754;2023-04-03T13:20:13;5.50;;;2.13;;
40599;SDS011;26309;50.924;4.754;2023-04-03T13:22:54;5.47;;;2.00;;
40599;SDS011;26309;50.924;4.754;2023-04-03T13:25:30;4.07;;;2.03;;
40599;SDS011;26309;50.924;4.754;2023-04-03T13:27:59;5.30;;;1.93;;
40599;SDS011;26309;50.924;4.754;2023-04-03T13:30:35;3.43;;;2.20;;
40599;SDS011;26309;50.924;4.754;2023-04-03T13:33:04;4.67;;;2.20;;
40599;SDS011;26309;50.924;4.754;2023-04-03T13:35:43;5.87;;;2.40;;
40599;SDS011;26309;50.924;4.754;2023-04-03T13:41:04;4.97;;;2.47;;
40599;SDS011;26309;50.924;4.754;2023-04-03T13:43:48;3.33;;;2.00;;
40599;SDS011;26309;50.924;4.754;2023-04-03T13:48:42;2.67;;;1.90;;
40599;SDS011;26309;50.924;4.754;2023-04-03T13:53:48;3.58;;;2.15;;
40599;SDS011;26309;50.924;4.754;2023-04-03T13:56:19;3.93;;;1.80;;
40599;SDS011;26309;50.924;4.754;2023-04-03T13:59:02;2.80;;;1.67;;
40599;SDS011;26309;50.924;4.754;2023-04-03T14:02:22;3.20;;;1.93;;
40599;SDS011;26309;50.924;4.754;2023-04-03T14:04:29;3.40;;;1.90;;
40599;SDS011;26309;50.924;4.754;2023-04-03T14:07:21;5.37;;;2.00;;
40599;SDS011;26309;50.924;4.754;2023-04-03T14:09:48;2.53;;;1.87;;
40599;SDS011;26309;50.924;4.754;2023-04-03T14:12:16;3.40;;;2.03;;
40599;SDS011;26309;50.924;4.754;2023-04-03T14:14:45;4.20;;;1.93;;
40599;SDS011;26309;50.924;4.754;2023-04-03T14:17:15;3.45;;;1.83;;
40599;SDS011;26309;50.924;4.754;2023-04-03T14:19:43;2.08;;;1.40;;
40599;SDS011;26309;50.924;4.754;2023-04-03T14:25:05;4.32;;;1.85;;
40599;SDS011;26309;50.924;4.754;2023-04-03T14:27:39;4.38;;;1.90;;
40599;SDS011;26309;50.924;4.754;2023-04-03T14:30:08;4.47;;;2.30;;
40599;SDS011;26309;50.924;4.754;2023-04-03T14:32:44;8.57;;;2.10;;
40599;SDS011;26309;50.924;4.754;2023-04-03T14:35:09;2.63;;;1.83;;
40599;SDS011;26309;50.924;4.754;2023-04-03T14:37:35;4.20;;;1.80;;
40599;SDS011;26309;50.924;4.754;2023-04-03T14:40:06;4.75;;;1.92;;
40599;SDS011;26309;50.924;4.754;2023-04-03T14:42:35;2.95;;;1.85;;
40599;SDS011;26309;50.924;4.754;2023-04-03T14:45:04;5.68;;;2.20;;
40599;SDS011;26309;50.924;4.754;2023-04-03T14:47:32;3.42;;;1.75;;
40599;SDS011;26309;50.924;4.754;2023-04-03T14:49:59;4.25;;;1.83;;
40599;SDS011;26309;50.924;4.754;2023-04-03T14:52:27;3.75;;;2.05;;
40599;SDS011;26309;50.924;4.754;2023-04-03T14:54:55;2.33;;;1.73;;
40599;SDS011;26309;50.924;4.754;2023-04-03T14:57:25;7.43;;;2.33;;
40599;SDS011;26309;50.924;4.754;2023-04-03T14:59:53;4.45;;;2.08;;
40599;SDS011;26309;50.924;4.754;2023-04-03T15:04:56;3.22;;;1.92;;
40599;SDS011;26309;50.924;4.754;2023-04-03T15:07:24;7.78;;;2.08;;
40599;SDS011;26309;50.924;4.754;2023-04-03T15:09:53;4.65;;;1.98;;
40599;SDS011;26309;50.924;4.754;2023-04-03T15:12:21;3.33;;;2.13;;
40599;SDS011;26309;50.924;4.754;2023-04-03T15:14:48;2.83;;;2.03;;
40599;SDS011;26309;50.924;4.754;2023-04-03T15:17:15;2.58;;;1.95;;
40599;SDS011;26309;50.924;4.754;2023-04-03T15:19:43;3.60;;;2.20;;
40599;SDS011;26309;50.924;4.754;2023-04-03T15:22:13;5.57;;;2.42;;
40599;SDS011;26309;50.924;4.754;2023-04-03T15:24:41;2.80;;;2.05;;
40599;SDS011;26309;50.924;4.754;2023-04-03T15:27:08;6.45;;;2.30;;
40599;SDS011;26309;50.924;4.754;2023-04-03T15:29:35;3.60;;;2.17;;
40599;SDS011;26309;50.924;4.754;2023-04-03T15:32:02;6.78;;;2.47;;
40599;SDS011;26309;50.924;4.754;2023-04-03T15:34:28;3.55;;;2.20;;
40599;SDS011;26309;50.924;4.754;2023-04-03T15:36:54;3.90;;;2.10;;
40599;SDS011;26309;50.924;4.754;2023-04-03T15:39:20;4.75;;;2.30;;
40599;SDS011;26309;50.924;4.754;2023-04-03T15:41:48;6.18;;;2.45;;
40599;SDS011;26309;50.924;4.754;2023-04-03T15:44:14;4.00;;;2.40;;
40599;SDS011;26309;50.924;4.754;2023-04-03T15:46:43;2.88;;;2.20;;
40599;SDS011;26309;50.924;4.754;2023-04-03T15:49:10;5.25;;;2.47;;
40599;SDS011;26309;50.924;4.754;2023-04-03T15:51:40;6.00;;;2.67;;
40599;SDS011;26309;50.924;4.754;2023-04-03T15:54:06;2.65;;;2.13;;
40599;SDS011;26309;50.924;4.754;2023-04-03T15:56:32;4.13;;;2.58;;
40599;SDS011;26309;50.924;4.754;2023-04-03T15:58:58;3.45;;;2.30;;
40599;SDS011;26309;50.924;4.754;2023-04-03T16:01:23;3.33;;;2.10;;
40599;SDS011;26309;50.924;4.754;2023-04-03T16:03:49;3.85;;;2.22;;
40599;SDS011;26309;50.924;4.754;2023-04-03T16:06:16;5.13;;;2.58;;
40599;SDS011;26309;50.924;4.754;2023-04-03T16:08:43;6.18;;;2.40;;
40599;SDS011;26309;50.924;4.754;2023-04-03T16:11:10;5.85;;;2.40;;
40599;SDS011;26309;50.924;4.754;2023-04-03T16:13:35;4.57;;;2.38;;
40599;SDS011;26309;50.924;4.754;2023-04-03T16:16:01;4.78;;;2.42;;
40599;SDS011;26309;50.924;4.754;2023-04-03T16:18:28;5.57;;;2.40;;
40599;SDS011;26309;50.924;4.754;2023-04-03T16:20:55;5.95;;;2.40;;
40599;SDS011;26309;50.924;4.754;2023-04-03T16:23:21;2.08;;;1.88;;
40599;SDS011;26309;50.924;4.754;2023-04-03T16:25:47;3.10;;;2.00;;
40599;SDS011;26309;50.924;4.754;2023-04-03T16:28:15;5.88;;;2.60;;
40599;SDS011;26309;50.924;4.754;2023-04-03T16:30:43;4.13;;;2.25;;
40599;SDS011;26309;50.924;4.754;2023-04-03T16:33:10;5.15;;;2.30;;
40599;SDS011;26309;50.924;4.754;2023-04-03T16:35:37;3.80;;;1.88;;